sensor_id;sensor_type;location;lat;lon;timestamp;P1;durP1;ratioP1;P2;durP2;ratioP2
23262;SDS011;11800;49.830;9.922;2022-07-24T00:00:20;0.00;;;0.00;;
23262;SDS011;11800;49.830;9.922;2022-07-24T00:02:46;0.00;;;0.00;;
23262;SDS011;11800;49.830;9.922;2022-07-24T00:05:12;0.00;;;0.00;;
23262;SDS011;11800;49.830;9.922;2022-07-24T00:07:38;0.00;;;0.00;;
23262;SDS011;11800;49.830;9.922;2022-07-24T00:10:05;0.00;;;0.00;;
23262;SDS011;11800;49.830;9.922;2022-07-24T00:12:31;0.08;;;0.08;;
23262;SDS011;11800;49.830;9.922;2022-07-24T00:14:57;0.00;;;0.00;;
23262;SDS011;11800;49.830;9.922;2022-07-24T00:17:23;0.10;;;0.10;;
23262;SDS011;11800;49.830;9.922;2022-07-24T00:19:49;0.08;;;0.08;;
23262;SDS011;11800;49.830;9.922;2022-07-24T00:22:15;0.03;;;0.03;;
23262;SDS011;11800;49.830;9.922;2022-07-24T00:24:41;0.00;;;0.00;;
23262;SDS011;11800;49.830;9.922;2022-07-24T00:27:07;0.10;;;0.10;;
23262;SDS011;11800;49.830;9.922;2022-07-24T00:29:34;0.10;;;0.10;;
23262;SDS011;11800;49.830;9.922;2022-07-24T00:32:00;0.10;;;0.10;;
23262;SDS011;11800;49.830;9.922;2022-07-24T00:34:26;0.00;;;0.00;;
23262;SDS011;11800;49.830;9.922;2022-07-24T00:36:52;0.00;;;0.00;;
23262;SDS011;11800;49.830;9.922;2022-07-24T00:39:18;0.00;;;0.00;;
23262;SDS011;11800;49.830;9.922;2022-07-24T00:41:44;0.00;;;0.00;;
23262;SDS011;11800;49.830;9.922;2022-07-24T00:44:11;0.00;;;0.00;;
23262;SDS011;11800;49.830;9.922;2022-07-24T00:46:38;0.00;;;0.00;;
23262;SDS011;11800;49.830;9.922;2022-07-24T00:49:05;0.10;;;0.10;;
23262;SDS011;11800;49.830;9.922;2022-07-24T00:51:32;0.03;;;0.03;;
23262;SDS011;11800;49.830;9.922;2022-07-24T00:53:59;0.00;;;0.00;;
23262;SDS011;11800;49.830;9.922;2022-07-24T00:56:25;0.00;;;0.00;;
23262;SDS011;11800;49.830;9.922;2022-07-24T00:58:51;0.00;;;0.00;;
23262;SDS011;11800;49.830;9.922;2022-07-24T01:01:17;0.00;;;0.00;;
23262;SDS011;11800;49.830;9.922;2022-07-24T01:03:43;0.00;;;0.00;;
23262;SDS011;11800;49.830;9.922;2022-07-24T01:06:09;0.00;;;0.00;;
23262;SDS011;11800;49.830;9.922;2022-07-24T01:08:35;0.00;;;0.00;;
23262;SDS011;11800;49.830;9.922;2022-07-24T01:11:02;0.00;;;0.00;;
23262;SDS011;11800;49.830;9.922;2022-07-24T01:13:29;0.00;;;0.00;;
23262;SDS011;11800;49.830;9.922;2022-07-24T01:15:55;0.00;;;0.00;;
23262;SDS011;11800;49.830;9.922;2022-07-24T01:18:21;0.10;;;0.10;;
23262;SDS011;11800;49.830;9.922;2022-07-24T01:20:47;0.00;;;0.00;;
23262;SDS011;11800;49.830;9.922;2022-07-24T01:23:14;0.00;;;0.00;;
23262;SDS011;11800;49.830;9.922;2022-07-24T01:25:40;0.00;;;0.00;;
23262;SDS011;11800;49.830;9.922;2022-07-24T01:28:06;0.00;;;0.00;;
23262;SDS011;11800;49.830;9.922;2022-07-24T01:30:32;0.00;;;0.00;;
23262;SDS011;11800;49.830;9.922;2022-07-24T01:32:58;0.00;;;0.00;;
23262;SDS011;11800;49.830;9.922;2022-07-24T01:35:24;0.00;;;0.00;;
23262;SDS011;11800;49.830;9.922;2022-07-24T01:37:51;0.10;;;0.10;;
23262;SDS011;11800;49.830;9.922;2022-07-24T01:40:17;0.00;;;0.00;;
23262;SDS011;11800;49.830;9.922;2022-07-24T01:42:43;0.00;;;0.00;;
23262;SDS011;11800;49.830;9.922;2022-07-24T01:45:09;0.03;;;0.03;;
23262;SDS011;11800;49.830;9.922;2022-07-24T01:47:35;0.10;;;0.10;;
23262;SDS011;11800;49.830;9.922;2022-07-24T01:50:02;0.10;;;0.10;;
23262;SDS011;11800;49.830;9.922;2022-07-24T01:52:28;0.10;;;0.10;;
23262;SDS011;11800;49.830;9.922;2022-07-24T01:54:54;0.00;;;0.00;;
23262;SDS011;11800;49.830;9.922;2022-07-24T01:57:20;0.00;;;0.00;;
23262;SDS011;11800;49.830;9.922;2022-07-24T01:59:46;0.00;;;0.00;;
23262;SDS011;11800;49.830;9.922;2022-07-24T02:02:12;0.00;;;0.00;;
23262;SDS011;11800;49.830;9.922;2022-07-24T02:04:38;0.00;;;0.00;;
23262;SDS011;11800;49.830;9.922;2022-07-24T02:07:04;0.00;;;0.00;;
23262;SDS011;11800;49.830;9.922;2022-07-24T02:09:30;0.00;;;0.00;;
23262;SDS011;11800;49.830;9.922;2022-07-24T02:11:57;0.00;;;0.00;;
23262;SDS011;11800;49.830;9.922;2022-07-24T02:14:23;0.00;;;0.00;;
23262;SDS011;11800;49.830;9.922;2022-07-24T02:16:49;0.00;;;0.00;;
23262;SDS011;11800;49.830;9.922;2022-07-24T02:19:15;0.00;;;0.00;;
23262;SDS011;11800;49.830;9.922;2022-07-24T02:21:41;0.00;;;0.00;;
23262;SDS011;11800;49.830;9.922;2022-07-24T02:24:07;0.00;;;0.00;;
23262;SDS011;11800;49.830;9.922;2022-07-24T02:26:33;0.00;;;0.00;;
23262;SDS011;11800;49.830;9.922;2022-07-24T02:28:59;0.10;;;0.10;;
23262;SDS011;11800;49.830;9.922;2022-07-24T02:31:25;0.00;;;0.00;;
23262;SDS011;11800;49.830;9.922;2022-07-24T02:33:51;0.00;;;0.00;;
23262;SDS011;11800;49.830;9.922;2022-07-24T02:36:17;0.00;;;0.00;;
23262;SDS011;11800;49.830;9.922;2022-07-24T02:38:43;0.10;;;0.10;;
23262;SDS011;11800;49.830;9.922;2022-07-24T02:41:09;0.03;;;0.03;;
23262;SDS011;11800;49.830;9.922;2022-07-24T02:43:35;0.10;;;0.10;;
23262;SDS011;11800;49.830;9.922;2022-07-24T02:46:01;0.03;;;0.03;;
23262;SDS011;11800;49.830;9.922;2022-07-24T02:48:27;0.00;;;0.00;;
23262;SDS011;11800;49.830;9.922;2022-07-24T02:50:53;0.00;;;0.00;;
23262;SDS011;11800;49.830;9.922;2022-07-24T02:53:19;0.00;;;0.00;;
23262;SDS011;11800;49.830;9.922;2022-07-24T02:55:46;0.00;;;0.00;;
23262;SDS011;11800;49.830;9.922;2022-07-24T02:58:12;0.00;;;0.00;;
23262;SDS011;11800;49.830;9.922;2022-07-24T03:00:38;0.00;;;0.00;;
23262;SDS011;11800;49.830;9.922;2022-07-24T03:03:04;0.05;;;0.05;;
23262;SDS011;11800;49.830;9.922;2022-07-24T03:05:30;0.00;;;0.00;;
23262;SDS011;11800;49.830;9.922;2022-07-24T03:07:56;0.10;;;0.10;;
23262;SDS011;11800;49.830;9.922;2022-07-24T03:10:22;0.00;;;0.00;;
23262;SDS011;11800;49.830;9.922;2022-07-24T03:12:48;0.05;;;0.05;;
23262;SDS011;11800;49.830;9.922;2022-07-24T03:15:15;0.10;;;0.10;;
23262;SDS011;11800;49.830;9.922;2022-07-24T03:17:48;0.00;;;0.00;;
23262;SDS011;11800;49.830;9.922;2022-07-24T03:20:14;0.10;;;0.10;;
23262;SDS011;11800;49.830;9.922;2022-07-24T03:22:40;0.05;;;0.05;;
23262;SDS011;11800;49.830;9.922;2022-07-24T03:25:06;0.00;;;0.00;;
23262;SDS011;11800;49.830;9.922;2022-07-24T03:27:32;0.03;;;0.03;;
23262;SDS011;11800;49.830;9.922;2022-07-24T03:29:58;0.08;;;0.08;;
23262;SDS011;11800;49.830;9.922;2022-07-24T03:32:24;0.00;;;0.00;;
23262;SDS011;11800;49.830;9.922;2022-07-24T03:34:50;0.00;;;0.00;;
23262;SDS011;11800;49.830;9.922;2022-07-24T03:37:17;0.10;;;0.10;;
23262;SDS011;11800;49.830;9.922;2022-07-24T03:39:43;0.10;;;0.10;;
23262;SDS011;11800;49.830;9.922;2022-07-24T03:42:09;0.00;;;0.00;;
23262;SDS011;11800;49.830;9.922;2022-07-24T03:44:35;0.05;;;0.05;;
23262;SDS011;11800;49.830;9.922;2022-07-24T03:47:01;0.00;;;0.00;;
23262;SDS011;11800;49.830;9.922;2022-07-24T03:49:27;0.08;;;0.08;;
23262;SDS011;11800;49.830;9.922;2022-07-24T03:51:53;0.00;;;0.00;;
23262;SDS011;11800;49.830;9.922;2022-07-24T03:54:19;0.10;;;0.10;;
23262;SDS011;11800;49.830;9.922;2022-07-24T03:56:45;0.03;;;0.03;;
23262;SDS011;11800;49.830;9.922;2022-07-24T03:59:11;0.00;;;0.00;;
23262;SDS011;11800;49.830;9.922;2022-07-24T04:01:37;0.00;;;0.00;;
23262;SDS011;11800;49.830;9.922;2022-07-24T04:04:03;0.00;;;0.00;;
23262;SDS011;11800;49.830;9.922;2022-07-24T04:06:30;0.10;;;0.10;;
23262;SDS011;11800;49.830;9.922;2022-07-24T04:08:57;0.08;;;0.08;;
23262;SDS011;11800;49.830;9.922;2022-07-24T04:11:23;0.10;;;0.10;;
23262;SDS011;11800;49.830;9.922;2022-07-24T04:13:49;0.10;;;0.10;;
23262;SDS011;11800;49.830;9.922;2022-07-24T04:16:15;0.10;;;0.10;;
23262;SDS011;11800;49.830;9.922;2022-07-24T04:18:41;0.05;;;0.05;;
23262;SDS011;11800;49.830;9.922;2022-07-24T04:21:07;0.03;;;0.03;;
23262;SDS011;11800;49.830;9.922;2022-07-24T04:23:33;0.03;;;0.03;;
23262;SDS011;11800;49.830;9.922;2022-07-24T04:25:59;0.10;;;0.10;;
23262;SDS011;11800;49.830;9.922;2022-07-24T04:28:25;0.00;;;0.00;;
23262;SDS011;11800;49.830;9.922;2022-07-24T04:30:51;0.00;;;0.00;;
23262;SDS011;11800;49.830;9.922;2022-07-24T04:33:17;0.10;;;0.10;;
23262;SDS011;11800;49.830;9.922;2022-07-24T04:35:43;0.00;;;0.00;;
23262;SDS011;11800;49.830;9.922;2022-07-24T04:38:09;0.00;;;0.00;;
23262;SDS011;11800;49.830;9.922;2022-07-24T04:40:35;0.08;;;0.08;;
23262;SDS011;11800;49.830;9.922;2022-07-24T04:43:02;0.00;;;0.00;;
23262;SDS011;11800;49.830;9.922;2022-07-24T04:45:28;0.00;;;0.00;;
23262;SDS011;11800;49.830;9.922;2022-07-24T04:47:54;0.10;;;0.10;;
23262;SDS011;11800;49.830;9.922;2022-07-24T04:50:20;0.10;;;0.10;;
23262;SDS011;11800;49.830;9.922;2022-07-24T04:52:46;0.00;;;0.00;;
23262;SDS011;11800;49.830;9.922;2022-07-24T04:55:12;0.00;;;0.00;;
23262;SDS011;11800;49.830;9.922;2022-07-24T04:57:38;0.00;;;0.00;;
23262;SDS011;11800;49.830;9.922;2022-07-24T05:00:05;0.00;;;0.00;;
23262;SDS011;11800;49.830;9.922;2022-07-24T05:02:32;0.00;;;0.00;;
23262;SDS011;11800;49.830;9.922;2022-07-24T05:04:58;0.00;;;0.00;;
23262;SDS011;11800;49.830;9.922;2022-07-24T05:07:24;0.10;;;0.10;;
23262;SDS011;11800;49.830;9.922;2022-07-24T05:09:50;0.00;;;0.00;;
23262;SDS011;11800;49.830;9.922;2022-07-24T05:12:16;0.03;;;0.03;;
23262;SDS011;11800;49.830;9.922;2022-07-24T05:14:42;0.03;;;0.03;;
23262;SDS011;11800;49.830;9.922;2022-07-24T05:17:08;0.10;;;0.10;;
23262;SDS011;11800;49.830;9.922;2022-07-24T05:19:34;0.00;;;0.00;;
23262;SDS011;11800;49.830;9.922;2022-07-24T05:22:01;0.08;;;0.08;;
23262;SDS011;11800;49.830;9.922;2022-07-24T05:24:27;0.00;;;0.00;;
23262;SDS011;11800;49.830;9.922;2022-07-24T05:26:53;0.10;;;0.10;;
23262;SDS011;11800;49.830;9.922;2022-07-24T05:29:19;0.00;;;0.00;;
23262;SDS011;11800;49.830;9.922;2022-07-24T05:31:45;0.00;;;0.00;;
23262;SDS011;11800;49.830;9.922;2022-07-24T05:34:11;0.10;;;0.10;;
23262;SDS011;11800;49.830;9.922;2022-07-24T05:36:37;0.10;;;0.10;;
23262;SDS011;11800;49.830;9.922;2022-07-24T05:39:03;0.00;;;0.00;;
23262;SDS011;11800;49.830;9.922;2022-07-24T05:41:30;0.00;;;0.00;;
23262;SDS011;11800;49.830;9.922;2022-07-24T05:43:56;0.05;;;0.05;;
23262;SDS011;11800;49.830;9.922;2022-07-24T05:46:22;0.10;;;0.10;;
23262;SDS011;11800;49.830;9.922;2022-07-24T05:48:48;0.00;;;0.00;;
23262;SDS011;11800;49.830;9.922;2022-07-24T05:51:14;0.10;;;0.10;;
23262;SDS011;11800;49.830;9.922;2022-07-24T05:53:40;0.00;;;0.00;;
23262;SDS011;11800;49.830;9.922;2022-07-24T05:56:06;0.05;;;0.05;;
23262;SDS011;11800;49.830;9.922;2022-07-24T05:58:32;0.10;;;0.10;;
23262;SDS011;11800;49.830;9.922;2022-07-24T06:00:58;0.00;;;0.00;;
23262;SDS011;11800;49.830;9.922;2022-07-24T06:03:24;0.00;;;0.00;;
23262;SDS011;11800;49.830;9.922;2022-07-24T06:05:50;0.00;;;0.00;;
23262;SDS011;11800;49.830;9.922;2022-07-24T06:08:16;0.00;;;0.00;;
23262;SDS011;11800;49.830;9.922;2022-07-24T06:10:42;0.00;;;0.00;;
23262;SDS011;11800;49.830;9.922;2022-07-24T06:13:08;0.10;;;0.10;;
23262;SDS011;11800;49.830;9.922;2022-07-24T06:15:34;0.10;;;0.10;;
23262;SDS011;11800;49.830;9.922;2022-07-24T06:18:01;0.10;;;0.10;;
23262;SDS011;11800;49.830;9.922;2022-07-24T06:20:27;0.00;;;0.00;;
23262;SDS011;11800;49.830;9.922;2022-07-24T06:22:53;0.00;;;0.00;;
23262;SDS011;11800;49.830;9.922;2022-07-24T06:25:19;0.00;;;0.00;;
23262;SDS011;11800;49.830;9.922;2022-07-24T06:27:46;0.00;;;0.00;;
23262;SDS011;11800;49.830;9.922;2022-07-24T06:30:22;0.10;;;0.10;;
23262;SDS011;11800;49.830;9.922;2022-07-24T06:32:49;0.00;;;0.00;;
23262;SDS011;11800;49.830;9.922;2022-07-24T06:35:15;0.10;;;0.10;;
23262;SDS011;11800;49.830;9.922;2022-07-24T06:37:41;0.10;;;0.10;;
23262;SDS011;11800;49.830;9.922;2022-07-24T06:40:08;0.00;;;0.00;;
23262;SDS011;11800;49.830;9.922;2022-07-24T06:42:35;0.10;;;0.10;;
23262;SDS011;11800;49.830;9.922;2022-07-24T06:45:01;0.10;;;0.10;;
23262;SDS011;11800;49.830;9.922;2022-07-24T06:47:27;0.10;;;0.10;;
23262;SDS011;11800;49.830;9.922;2022-07-24T06:49:53;0.10;;;0.10;;
23262;SDS011;11800;49.830;9.922;2022-07-24T06:52:19;0.08;;;0.08;;
23262;SDS011;11800;49.830;9.922;2022-07-24T06:54:46;0.00;;;0.00;;
23262;SDS011;11800;49.830;9.922;2022-07-24T06:57:12;0.10;;;0.10;;
23262;SDS011;11800;49.830;9.922;2022-07-24T06:59:38;0.10;;;0.10;;
23262;SDS011;11800;49.830;9.922;2022-07-24T07:02:04;0.10;;;0.10;;
23262;SDS011;11800;49.830;9.922;2022-07-24T07:04:30;0.00;;;0.00;;
23262;SDS011;11800;49.830;9.922;2022-07-24T07:06:56;0.00;;;0.00;;
23262;SDS011;11800;49.830;9.922;2022-07-24T07:09:22;0.03;;;0.03;;
23262;SDS011;11800;49.830;9.922;2022-07-24T07:11:49;0.00;;;0.00;;
23262;SDS011;11800;49.830;9.922;2022-07-24T07:14:15;0.05;;;0.05;;
23262;SDS011;11800;49.830;9.922;2022-07-24T07:16:41;0.10;;;0.10;;
23262;SDS011;11800;49.830;9.922;2022-07-24T07:19:07;0.00;;;0.00;;
23262;SDS011;11800;49.830;9.922;2022-07-24T07:21:33;0.10;;;0.10;;
23262;SDS011;11800;49.830;9.922;2022-07-24T07:24:01;0.10;;;0.10;;
23262;SDS011;11800;49.830;9.922;2022-07-24T07:26:27;0.10;;;0.10;;
23262;SDS011;11800;49.830;9.922;2022-07-24T07:28:53;0.10;;;0.10;;
23262;SDS011;11800;49.830;9.922;2022-07-24T07:31:19;0.00;;;0.00;;
23262;SDS011;11800;49.830;9.922;2022-07-24T07:33:46;0.00;;;0.00;;
23262;SDS011;11800;49.830;9.922;2022-07-24T07:36:12;0.00;;;0.00;;
23262;SDS011;11800;49.830;9.922;2022-07-24T07:38:38;0.10;;;0.10;;
23262;SDS011;11800;49.830;9.922;2022-07-24T07:41:05;0.10;;;0.10;;
23262;SDS011;11800;49.830;9.922;2022-07-24T07:43:31;0.05;;;0.05;;
23262;SDS011;11800;49.830;9.922;2022-07-24T07:45:57;0.10;;;0.10;;
23262;SDS011;11800;49.830;9.922;2022-07-24T07:48:23;0.10;;;0.10;;
23262;SDS011;11800;49.830;9.922;2022-07-24T07:50:49;0.10;;;0.10;;
23262;SDS011;11800;49.830;9.922;2022-07-24T07:53:15;0.10;;;0.10;;
23262;SDS011;11800;49.830;9.922;2022-07-24T07:55:42;0.10;;;0.10;;
23262;SDS011;11800;49.830;9.922;2022-07-24T07:58:08;0.10;;;0.10;;
23262;SDS011;11800;49.830;9.922;2022-07-24T08:00:35;0.10;;;0.10;;
23262;SDS011;11800;49.830;9.922;2022-07-24T08:03:01;0.00;;;0.00;;
23262;SDS011;11800;49.830;9.922;2022-07-24T08:05:28;0.10;;;0.10;;
23262;SDS011;11800;49.830;9.922;2022-07-24T08:07:54;0.00;;;0.00;;
23262;SDS011;11800;49.830;9.922;2022-07-24T08:10:21;0.00;;;0.00;;
23262;SDS011;11800;49.830;9.922;2022-07-24T08:12:47;0.10;;;0.10;;
23262;SDS011;11800;49.830;9.922;2022-07-24T08:15:13;0.10;;;0.10;;
23262;SDS011;11800;49.830;9.922;2022-07-24T08:17:39;0.10;;;0.10;;
23262;SDS011;11800;49.830;9.922;2022-07-24T08:20:05;0.10;;;0.10;;
23262;SDS011;11800;49.830;9.922;2022-07-24T08:22:31;0.10;;;0.10;;
23262;SDS011;11800;49.830;9.922;2022-07-24T08:24:57;0.10;;;0.10;;
23262;SDS011;11800;49.830;9.922;2022-07-24T08:27:23;0.10;;;0.10;;
23262;SDS011;11800;49.830;9.922;2022-07-24T08:29:49;0.10;;;0.10;;
23262;SDS011;11800;49.830;9.922;2022-07-24T08:32:15;0.08;;;0.08;;
23262;SDS011;11800;49.830;9.922;2022-07-24T08:34:42;0.10;;;0.10;;
23262;SDS011;11800;49.830;9.922;2022-07-24T08:37:08;0.10;;;0.10;;
23262;SDS011;11800;49.830;9.922;2022-07-24T08:39:34;0.10;;;0.10;;
23262;SDS011;11800;49.830;9.922;2022-07-24T08:42:00;0.10;;;0.10;;
23262;SDS011;11800;49.830;9.922;2022-07-24T08:44:26;0.10;;;0.10;;
23262;SDS011;11800;49.830;9.922;2022-07-24T08:46:53;0.10;;;0.10;;
23262;SDS011;11800;49.830;9.922;2022-07-24T08:49:19;0.10;;;0.10;;
23262;SDS011;11800;49.830;9.922;2022-07-24T08:51:47;0.10;;;0.10;;
23262;SDS011;11800;49.830;9.922;2022-07-24T08:54:14;0.10;;;0.10;;
23262;SDS011;11800;49.830;9.922;2022-07-24T08:56:40;0.10;;;0.10;;
23262;SDS011;11800;49.830;9.922;2022-07-24T08:59:19;0.05;;;0.05;;
23262;SDS011;11800;49.830;9.922;2022-07-24T09:01:49;0.10;;;0.10;;
23262;SDS011;11800;49.830;9.922;2022-07-24T09:06:57;0.10;;;0.10;;
23262;SDS011;11800;49.830;9.922;2022-07-24T09:09:23;0.10;;;0.10;;
23262;SDS011;11800;49.830;9.922;2022-07-24T09:11:49;0.00;;;0.00;;
23262;SDS011;11800;49.830;9.922;2022-07-24T09:14:17;0.10;;;0.10;;
23262;SDS011;11800;49.830;9.922;2022-07-24T09:17:05;0.10;;;0.10;;
23262;SDS011;11800;49.830;9.922;2022-07-24T09:19:39;0.10;;;0.10;;
23262;SDS011;11800;49.830;9.922;2022-07-24T09:22:15;0.03;;;0.03;;
23262;SDS011;11800;49.830;9.922;2022-07-24T09:24:42;0.10;;;0.10;;
23262;SDS011;11800;49.830;9.922;2022-07-24T09:27:08;0.10;;;0.10;;
23262;SDS011;11800;49.830;9.922;2022-07-24T09:29:39;0.10;;;0.10;;
23262;SDS011;11800;49.830;9.922;2022-07-24T09:32:05;0.10;;;0.10;;
23262;SDS011;11800;49.830;9.922;2022-07-24T09:34:37;0.10;;;0.10;;
23262;SDS011;11800;49.830;9.922;2022-07-24T09:37:04;0.10;;;0.10;;
23262;SDS011;11800;49.830;9.922;2022-07-24T09:39:31;0.10;;;0.10;;
23262;SDS011;11800;49.830;9.922;2022-07-24T09:41:58;0.10;;;0.10;;
23262;SDS011;11800;49.830;9.922;2022-07-24T09:44:25;0.10;;;0.10;;
23262;SDS011;11800;49.830;9.922;2022-07-24T09:46:58;0.10;;;0.10;;
23262;SDS011;11800;49.830;9.922;2022-07-24T09:49:24;0.10;;;0.10;;
23262;SDS011;11800;49.830;9.922;2022-07-24T09:54:37;0.10;;;0.10;;
23262;SDS011;11800;49.830;9.922;2022-07-24T09:57:22;0.00;;;0.00;;
23262;SDS011;11800;49.830;9.922;2022-07-24T09:59:53;0.10;;;0.10;;
23262;SDS011;11800;49.830;9.922;2022-07-24T10:02:20;0.10;;;0.10;;
23262;SDS011;11800;49.830;9.922;2022-07-24T10:04:47;0.10;;;0.10;;
23262;SDS011;11800;49.830;9.922;2022-07-24T10:07:14;0.10;;;0.10;;
23262;SDS011;11800;49.830;9.922;2022-07-24T10:09:42;0.10;;;0.10;;
23262;SDS011;11800;49.830;9.922;2022-07-24T10:12:12;0.10;;;0.10;;
23262;SDS011;11800;49.830;9.922;2022-07-24T10:14:38;0.10;;;0.10;;
23262;SDS011;11800;49.830;9.922;2022-07-24T10:17:06;0.08;;;0.08;;
23262;SDS011;11800;49.830;9.922;2022-07-24T10:19:40;0.10;;;0.10;;
23262;SDS011;11800;49.830;9.922;2022-07-24T10:22:11;0.10;;;0.10;;
23262;SDS011;11800;49.830;9.922;2022-07-24T10:24:52;0.10;;;0.10;;
23262;SDS011;11800;49.830;9.922;2022-07-24T10:27:26;0.10;;;0.10;;
23262;SDS011;11800;49.830;9.922;2022-07-24T10:29:53;0.10;;;0.10;;
23262;SDS011;11800;49.830;9.922;2022-07-24T10:32:19;0.10;;;0.10;;
23262;SDS011;11800;49.830;9.922;2022-07-24T10:34:46;0.10;;;0.10;;
23262;SDS011;11800;49.830;9.922;2022-07-24T10:40:02;0.10;;;0.10;;
23262;SDS011;11800;49.830;9.922;2022-07-24T10:42:28;0.10;;;0.10;;
23262;SDS011;11800;49.830;9.922;2022-07-24T10:47:39;0.10;;;0.10;;
23262;SDS011;11800;49.830;9.922;2022-07-24T10:50:05;0.10;;;0.10;;
23262;SDS011;11800;49.830;9.922;2022-07-24T10:52:32;0.10;;;0.10;;
23262;SDS011;11800;49.830;9.922;2022-07-24T10:57:58;0.10;;;0.10;;
23262;SDS011;11800;49.830;9.922;2022-07-24T11:03:08;0.10;;;0.10;;
23262;SDS011;11800;49.830;9.922;2022-07-24T11:05:35;0.10;;;0.10;;
23262;SDS011;11800;49.830;9.922;2022-07-24T11:08:43;0.10;;;0.10;;
23262;SDS011;11800;49.830;9.922;2022-07-24T11:10:57;0.10;;;0.10;;
23262;SDS011;11800;49.830;9.922;2022-07-24T11:18:38;0.10;;;0.10;;
23262;SDS011;11800;49.830;9.922;2022-07-24T11:21:04;0.10;;;0.10;;
23262;SDS011;11800;49.830;9.922;2022-07-24T11:23:31;0.10;;;0.10;;
23262;SDS011;11800;49.830;9.922;2022-07-24T11:31:30;0.10;;;0.10;;
23262;SDS011;11800;49.830;9.922;2022-07-24T11:33:57;0.10;;;0.10;;
23262;SDS011;11800;49.830;9.922;2022-07-24T11:36:24;0.10;;;0.10;;
23262;SDS011;11800;49.830;9.922;2022-07-24T11:38:50;0.10;;;0.10;;
23262;SDS011;11800;49.830;9.922;2022-07-24T11:41:17;0.10;;;0.10;;
23262;SDS011;11800;49.830;9.922;2022-07-24T11:43:50;0.10;;;0.10;;
23262;SDS011;11800;49.830;9.922;2022-07-24T11:46:31;0.10;;;0.10;;
23262;SDS011;11800;49.830;9.922;2022-07-24T11:49:04;0.10;;;0.10;;
23262;SDS011;11800;49.830;9.922;2022-07-24T11:51:30;0.10;;;0.10;;
23262;SDS011;11800;49.830;9.922;2022-07-24T11:53:56;0.10;;;0.10;;
23262;SDS011;11800;49.830;9.922;2022-07-24T11:56:23;0.10;;;0.10;;
23262;SDS011;11800;49.830;9.922;2022-07-24T11:58:49;0.10;;;0.10;;
23262;SDS011;11800;49.830;9.922;2022-07-24T12:01:19;0.10;;;0.10;;
23262;SDS011;11800;49.830;9.922;2022-07-24T12:03:49;0.08;;;0.08;;
23262;SDS011;11800;49.830;9.922;2022-07-24T12:06:15;0.10;;;0.10;;
23262;SDS011;11800;49.830;9.922;2022-07-24T12:08:41;0.10;;;0.10;;
23262;SDS011;11800;49.830;9.922;2022-07-24T12:11:07;0.10;;;0.10;;
23262;SDS011;11800;49.830;9.922;2022-07-24T12:13:33;0.10;;;0.10;;
23262;SDS011;11800;49.830;9.922;2022-07-24T12:15:59;0.10;;;0.10;;
23262;SDS011;11800;49.830;9.922;2022-07-24T12:18:25;0.00;;;0.00;;
23262;SDS011;11800;49.830;9.922;2022-07-24T12:20:57;0.10;;;0.10;;
23262;SDS011;11800;49.830;9.922;2022-07-24T12:23:23;0.10;;;0.10;;
23262;SDS011;11800;49.830;9.922;2022-07-24T12:25:49;0.10;;;0.10;;
23262;SDS011;11800;49.830;9.922;2022-07-24T12:28:18;0.10;;;0.10;;
23262;SDS011;11800;49.830;9.922;2022-07-24T12:30:48;0.10;;;0.10;;
23262;SDS011;11800;49.830;9.922;2022-07-24T12:35:54;0.10;;;0.10;;
23262;SDS011;11800;49.830;9.922;2022-07-24T12:38:27;0.10;;;0.10;;
23262;SDS011;11800;49.830;9.922;2022-07-24T12:41:10;0.10;;;0.10;;
23262;SDS011;11800;49.830;9.922;2022-07-24T12:43:46;0.10;;;0.10;;
23262;SDS011;11800;49.830;9.922;2022-07-24T12:46:13;0.10;;;0.10;;
23262;SDS011;11800;49.830;9.922;2022-07-24T12:48:39;0.10;;;0.10;;
23262;SDS011;11800;49.830;9.922;2022-07-24T12:51:09;0.10;;;0.10;;
23262;SDS011;11800;49.830;9.922;2022-07-24T12:53:37;0.10;;;0.10;;
23262;SDS011;11800;49.830;9.922;2022-07-24T13:01:13;0.10;;;0.10;;
23262;SDS011;11800;49.830;9.922;2022-07-24T13:03:39;0.10;;;0.10;;
23262;SDS011;11800;49.830;9.922;2022-07-24T13:06:06;0.10;;;0.10;;
23262;SDS011;11800;49.830;9.922;2022-07-24T13:08:32;0.10;;;0.10;;
23262;SDS011;11800;49.830;9.922;2022-07-24T13:10:58;0.10;;;0.10;;
23262;SDS011;11800;49.830;9.922;2022-07-24T13:13:24;0.17;;;0.17;;
23262;SDS011;11800;49.830;9.922;2022-07-24T13:15:50;0.10;;;0.10;;
23262;SDS011;11800;49.830;9.922;2022-07-24T13:18:16;0.10;;;0.10;;
23262;SDS011;11800;49.830;9.922;2022-07-24T13:20:42;0.10;;;0.10;;
23262;SDS011;11800;49.830;9.922;2022-07-24T13:23:08;0.10;;;0.10;;
23262;SDS011;11800;49.830;9.922;2022-07-24T13:25:34;0.10;;;0.10;;
23262;SDS011;11800;49.830;9.922;2022-07-24T13:28:01;0.10;;;0.10;;
23262;SDS011;11800;49.830;9.922;2022-07-24T13:30:27;0.10;;;0.10;;
23262;SDS011;11800;49.830;9.922;2022-07-24T13:32:53;0.10;;;0.10;;
23262;SDS011;11800;49.830;9.922;2022-07-24T13:35:19;0.20;;;0.20;;
23262;SDS011;11800;49.830;9.922;2022-07-24T13:37:45;0.20;;;0.20;;
23262;SDS011;11800;49.830;9.922;2022-07-24T13:40:11;0.10;;;0.10;;
23262;SDS011;11800;49.830;9.922;2022-07-24T13:42:38;0.10;;;0.10;;
23262;SDS011;11800;49.830;9.922;2022-07-24T13:45:05;0.10;;;0.10;;
23262;SDS011;11800;49.830;9.922;2022-07-24T13:47:31;0.10;;;0.10;;
23262;SDS011;11800;49.830;9.922;2022-07-24T13:49:57;0.10;;;0.10;;
23262;SDS011;11800;49.830;9.922;2022-07-24T13:52:23;0.10;;;0.10;;
23262;SDS011;11800;49.830;9.922;2022-07-24T13:54:50;0.20;;;0.20;;
23262;SDS011;11800;49.830;9.922;2022-07-24T13:57:16;0.20;;;0.20;;
23262;SDS011;11800;49.830;9.922;2022-07-24T13:59:42;0.20;;;0.20;;
23262;SDS011;11800;49.830;9.922;2022-07-24T14:02:08;0.13;;;0.13;;
23262;SDS011;11800;49.830;9.922;2022-07-24T14:04:34;0.20;;;0.20;;
23262;SDS011;11800;49.830;9.922;2022-07-24T14:07:00;0.20;;;0.20;;
23262;SDS011;11800;49.830;9.922;2022-07-24T14:09:26;0.20;;;0.20;;
23262;SDS011;11800;49.830;9.922;2022-07-24T14:11:53;0.20;;;0.20;;
23262;SDS011;11800;49.830;9.922;2022-07-24T14:14:20;0.20;;;0.20;;
23262;SDS011;11800;49.830;9.922;2022-07-24T14:16:46;0.20;;;0.20;;
23262;SDS011;11800;49.830;9.922;2022-07-24T14:19:12;0.20;;;0.20;;
23262;SDS011;11800;49.830;9.922;2022-07-24T14:21:39;0.20;;;0.20;;
23262;SDS011;11800;49.830;9.922;2022-07-24T14:24:05;0.20;;;0.20;;
23262;SDS011;11800;49.830;9.922;2022-07-24T14:26:31;0.20;;;0.20;;
23262;SDS011;11800;49.830;9.922;2022-07-24T14:28:57;0.20;;;0.20;;
23262;SDS011;11800;49.830;9.922;2022-07-24T14:31:23;0.20;;;0.20;;
23262;SDS011;11800;49.830;9.922;2022-07-24T14:33:49;0.20;;;0.20;;
23262;SDS011;11800;49.830;9.922;2022-07-24T14:36:15;0.20;;;0.20;;
23262;SDS011;11800;49.830;9.922;2022-07-24T14:38:41;0.10;;;0.10;;
23262;SDS011;11800;49.830;9.922;2022-07-24T14:41:07;0.30;;;0.30;;
23262;SDS011;11800;49.830;9.922;2022-07-24T14:43:33;0.30;;;0.30;;
23262;SDS011;11800;49.830;9.922;2022-07-24T14:45:59;0.40;;;0.40;;
23262;SDS011;11800;49.830;9.922;2022-07-24T14:48:25;0.40;;;0.40;;
23262;SDS011;11800;49.830;9.922;2022-07-24T14:50:51;0.30;;;0.30;;
23262;SDS011;11800;49.830;9.922;2022-07-24T14:53:17;0.20;;;0.20;;
23262;SDS011;11800;49.830;9.922;2022-07-24T14:55:43;0.40;;;0.40;;
23262;SDS011;11800;49.830;9.922;2022-07-24T14:58:09;0.30;;;0.30;;
23262;SDS011;11800;49.830;9.922;2022-07-24T15:00:36;0.20;;;0.20;;
23262;SDS011;11800;49.830;9.922;2022-07-24T15:03:02;0.20;;;0.20;;
23262;SDS011;11800;49.830;9.922;2022-07-24T15:05:28;0.20;;;0.20;;
23262;SDS011;11800;49.830;9.922;2022-07-24T15:07:54;0.20;;;0.20;;
23262;SDS011;11800;49.830;9.922;2022-07-24T15:10:20;0.20;;;0.20;;
23262;SDS011;11800;49.830;9.922;2022-07-24T15:12:46;0.10;;;0.10;;
23262;SDS011;11800;49.830;9.922;2022-07-24T15:15:12;0.20;;;0.20;;
23262;SDS011;11800;49.830;9.922;2022-07-24T15:17:38;0.10;;;0.10;;
23262;SDS011;11800;49.830;9.922;2022-07-24T15:20:04;0.10;;;0.10;;